Weather at Bryant Field

Public forecast

Using degrees Fahrenheit for public forecast. Weather courtesy of forecast.io.

Closest aviation weather report (METAR) to Bryant Field

Closest report is Mammoth Yosemite Airport, 42.5 nm (78.7 km) SSE. Retrieved 2020/10/31 12:35 UTC (10 minutes ago):

KMMH 311235Z AUTO 29003KT 10SM CLR M06/M20 A3036 RMK AO2

Closest aviation forecast (TAF) to Bryant Field

Closest forecast is Mammoth Yosemite Airport, 42.5 nm (78.7 km) SSE. Retrieved 2020/10/31 12:22 UTC (23 minutes ago):

TAF KMMH 311120Z 3112/0112 VRB03KT P6SM SKC FM311800 12007KT P6SM SKC FM010000 VRB03KT P6SM SKC